sensor_id;sensor_type;location;lat;lon;timestamp;temperature;humidity
14555;DHT22;7364;50.870;4.722;2023-12-20T00:01:39;6.80;99.90
14555;DHT22;7364;50.870;4.722;2023-12-20T00:04:07;6.70;99.90
14555;DHT22;7364;50.870;4.722;2023-12-20T00:06:34;6.70;99.90
14555;DHT22;7364;50.870;4.722;2023-12-20T00:09:02;6.70;99.90
14555;DHT22;7364;50.870;4.722;2023-12-20T00:11:30;6.70;99.90
14555;DHT22;7364;50.870;4.722;2023-12-20T00:13:57;6.60;99.90
14555;DHT22;7364;50.870;4.722;2023-12-20T00:16:24;6.60;99.90
14555;DHT22;7364;50.870;4.722;2023-12-20T00:18:51;6.60;99.90
14555;DHT22;7364;50.870;4.722;2023-12-20T00:21:19;6.60;99.90
14555;DHT22;7364;50.870;4.722;2023-12-20T00:23:46;6.60;99.90
14555;DHT22;7364;50.870;4.722;2023-12-20T00:26:14;6.50;99.90
14555;DHT22;7364;50.870;4.722;2023-12-20T00:28:42;6.60;99.90
14555;DHT22;7364;50.870;4.722;2023-12-20T00:31:09;6.60;99.90
14555;DHT22;7364;50.870;4.722;2023-12-20T00:33:40;6.60;99.90
14555;DHT22;7364;50.870;4.722;2023-12-20T00:36:09;6.60;99.90
14555;DHT22;7364;50.870;4.722;2023-12-20T00:38:36;6.70;99.90
14555;DHT22;7364;50.870;4.722;2023-12-20T00:41:03;6.60;99.90
14555;DHT22;7364;50.870;4.722;2023-12-20T00:43:32;6.60;99.90
14555;DHT22;7364;50.870;4.722;2023-12-20T00:45:59;6.50;99.90
14555;DHT22;7364;50.870;4.722;2023-12-20T00:48:26;6.50;99.90
14555;DHT22;7364;50.870;4.722;2023-12-20T00:50:56;6.50;99.90
14555;DHT22;7364;50.870;4.722;2023-12-20T00:53:23;6.40;99.90
14555;DHT22;7364;50.870;4.722;2023-12-20T00:55:50;6.40;99.90
14555;DHT22;7364;50.870;4.722;2023-12-20T00:58:17;6.40;99.90
14555;DHT22;7364;50.870;4.722;2023-12-20T01:00:46;6.40;99.90
14555;DHT22;7364;50.870;4.722;2023-12-20T01:03:13;6.40;99.90
14555;DHT22;7364;50.870;4.722;2023-12-20T01:05:41;6.40;99.90
14555;DHT22;7364;50.870;4.722;2023-12-20T01:08:08;6.40;99.90
14555;DHT22;7364;50.870;4.722;2023-12-20T01:10:35;6.40;99.90
14555;DHT22;7364;50.870;4.722;2023-12-20T01:13:02;6.40;99.90
14555;DHT22;7364;50.870;4.722;2023-12-20T01:15:29;6.40;99.90
14555;DHT22;7364;50.870;4.722;2023-12-20T01:17:58;6.40;99.90
14555;DHT22;7364;50.870;4.722;2023-12-20T01:20:25;6.40;99.90
14555;DHT22;7364;50.870;4.722;2023-12-20T01:22:52;6.40;99.90
14555;DHT22;7364;50.870;4.722;2023-12-20T01:25:19;6.40;99.90
14555;DHT22;7364;50.870;4.722;2023-12-20T01:27:47;6.30;99.90
14555;DHT22;7364;50.870;4.722;2023-12-20T01:30:15;6.30;99.90
14555;DHT22;7364;50.870;4.722;2023-12-20T01:32:42;6.30;99.90
14555;DHT22;7364;50.870;4.722;2023-12-20T01:35:10;6.30;99.90
14555;DHT22;7364;50.870;4.722;2023-12-20T01:37:38;6.40;99.90
14555;DHT22;7364;50.870;4.722;2023-12-20T01:40:06;6.30;99.90
14555;DHT22;7364;50.870;4.722;2023-12-20T01:42:33;6.30;99.90
14555;DHT22;7364;50.870;4.722;2023-12-20T01:45:00;6.30;99.90
14555;DHT22;7364;50.870;4.722;2023-12-20T01:47:28;6.40;99.90
14555;DHT22;7364;50.870;4.722;2023-12-20T01:49:55;6.30;99.90
14555;DHT22;7364;50.870;4.722;2023-12-20T01:52:25;6.30;99.90
14555;DHT22;7364;50.870;4.722;2023-12-20T01:54:54;6.30;99.90
14555;DHT22;7364;50.870;4.722;2023-12-20T01:57:28;6.30;99.90
14555;DHT22;7364;50.870;4.722;2023-12-20T01:59:56;6.30;99.90
14555;DHT22;7364;50.870;4.722;2023-12-20T02:02:26;6.30;99.90
14555;DHT22;7364;50.870;4.722;2023-12-20T02:04:54;6.30;99.90
14555;DHT22;7364;50.870;4.722;2023-12-20T02:07:24;6.30;99.90
14555;DHT22;7364;50.870;4.722;2023-12-20T02:09:51;6.30;99.90
14555;DHT22;7364;50.870;4.722;2023-12-20T02:12:19;6.30;99.90
14555;DHT22;7364;50.870;4.722;2023-12-20T02:14:46;6.30;99.90
14555;DHT22;7364;50.870;4.722;2023-12-20T02:17:14;6.40;99.90
14555;DHT22;7364;50.870;4.722;2023-12-20T02:19:42;6.60;99.90
14555;DHT22;7364;50.870;4.722;2023-12-20T02:22:11;6.70;99.90
14555;DHT22;7364;50.870;4.722;2023-12-20T02:24:40;6.70;99.90
14555;DHT22;7364;50.870;4.722;2023-12-20T02:27:08;6.70;99.90
14555;DHT22;7364;50.870;4.722;2023-12-20T02:29:35;6.70;99.90
14555;DHT22;7364;50.870;4.722;2023-12-20T02:32:03;6.50;99.90
14555;DHT22;7364;50.870;4.722;2023-12-20T02:34:30;6.40;99.90
14555;DHT22;7364;50.870;4.722;2023-12-20T02:36:57;6.30;99.90
14555;DHT22;7364;50.870;4.722;2023-12-20T02:39:26;6.30;99.90
14555;DHT22;7364;50.870;4.722;2023-12-20T02:41:53;6.20;99.90
14555;DHT22;7364;50.870;4.722;2023-12-20T02:44:20;6.20;99.90
14555;DHT22;7364;50.870;4.722;2023-12-20T02:46:47;6.20;99.90
14555;DHT22;7364;50.870;4.722;2023-12-20T02:49:15;6.20;99.90
14555;DHT22;7364;50.870;4.722;2023-12-20T02:51:42;6.10;99.90
14555;DHT22;7364;50.870;4.722;2023-12-20T02:54:09;6.20;99.90
14555;DHT22;7364;50.870;4.722;2023-12-20T02:56:38;6.20;99.90
14555;DHT22;7364;50.870;4.722;2023-12-20T02:59:05;6.20;99.90
14555;DHT22;7364;50.870;4.722;2023-12-20T03:01:34;6.20;99.90
14555;DHT22;7364;50.870;4.722;2023-12-20T03:04:02;6.20;99.90
14555;DHT22;7364;50.870;4.722;2023-12-20T03:06:29;6.30;99.90
14555;DHT22;7364;50.870;4.722;2023-12-20T03:08:56;6.20;99.90
14555;DHT22;7364;50.870;4.722;2023-12-20T03:11:26;6.20;99.90
14555;DHT22;7364;50.870;4.722;2023-12-20T03:13:55;6.20;99.90
14555;DHT22;7364;50.870;4.722;2023-12-20T03:16:23;6.10;99.90
14555;DHT22;7364;50.870;4.722;2023-12-20T03:18:50;6.10;99.90
14555;DHT22;7364;50.870;4.722;2023-12-20T03:21:17;6.20;99.90
14555;DHT22;7364;50.870;4.722;2023-12-20T03:23:47;6.20;99.90
14555;DHT22;7364;50.870;4.722;2023-12-20T03:26:15;6.20;99.90
14555;DHT22;7364;50.870;4.722;2023-12-20T03:28:42;6.20;99.90
14555;DHT22;7364;50.870;4.722;2023-12-20T03:31:11;6.10;99.90
14555;DHT22;7364;50.870;4.722;2023-12-20T03:33:38;6.10;99.90
14555;DHT22;7364;50.870;4.722;2023-12-20T03:36:05;6.10;99.90
14555;DHT22;7364;50.870;4.722;2023-12-20T03:38:33;6.10;99.90
14555;DHT22;7364;50.870;4.722;2023-12-20T03:41:00;6.10;99.90
14555;DHT22;7364;50.870;4.722;2023-12-20T03:43:27;6.10;99.90
14555;DHT22;7364;50.870;4.722;2023-12-20T03:45:54;6.10;99.90
14555;DHT22;7364;50.870;4.722;2023-12-20T03:48:23;6.10;99.90
14555;DHT22;7364;50.870;4.722;2023-12-20T03:50:50;6.10;99.90
14555;DHT22;7364;50.870;4.722;2023-12-20T03:53:18;6.10;99.90
14555;DHT22;7364;50.870;4.722;2023-12-20T03:55:45;6.10;99.90
14555;DHT22;7364;50.870;4.722;2023-12-20T03:58:12;6.00;99.90
14555;DHT22;7364;50.870;4.722;2023-12-20T04:00:39;6.10;99.90
14555;DHT22;7364;50.870;4.722;2023-12-20T04:03:07;6.10;99.90
14555;DHT22;7364;50.870;4.722;2023-12-20T04:05:36;6.10;99.90
14555;DHT22;7364;50.870;4.722;2023-12-20T04:08:03;6.10;99.90
14555;DHT22;7364;50.870;4.722;2023-12-20T04:10:31;6.10;99.90
14555;DHT22;7364;50.870;4.722;2023-12-20T04:12:58;6.10;99.90
14555;DHT22;7364;50.870;4.722;2023-12-20T04:15:26;6.10;99.90
14555;DHT22;7364;50.870;4.722;2023-12-20T04:17:53;6.20;99.90
14555;DHT22;7364;50.870;4.722;2023-12-20T04:20:20;6.20;99.90
14555;DHT22;7364;50.870;4.722;2023-12-20T04:22:49;6.20;99.90
14555;DHT22;7364;50.870;4.722;2023-12-20T04:25:16;6.20;99.90
14555;DHT22;7364;50.870;4.722;2023-12-20T04:27:43;6.10;99.90
14555;DHT22;7364;50.870;4.722;2023-12-20T04:30:11;6.10;99.90
14555;DHT22;7364;50.870;4.722;2023-12-20T04:32:38;6.00;99.90
14555;DHT22;7364;50.870;4.722;2023-12-20T04:35:06;6.10;99.90
14555;DHT22;7364;50.870;4.722;2023-12-20T04:37:34;6.10;99.90
14555;DHT22;7364;50.870;4.722;2023-12-20T04:40:03;6.10;99.90
14555;DHT22;7364;50.870;4.722;2023-12-20T04:42:33;6.00;99.90
14555;DHT22;7364;50.870;4.722;2023-12-20T04:45:00;6.00;99.90
14555;DHT22;7364;50.870;4.722;2023-12-20T04:47:28;6.10;99.90
14555;DHT22;7364;50.870;4.722;2023-12-20T04:49:55;6.10;99.90
14555;DHT22;7364;50.870;4.722;2023-12-20T04:52:22;6.10;99.90
14555;DHT22;7364;50.870;4.722;2023-12-20T04:54:49;6.10;99.90
14555;DHT22;7364;50.870;4.722;2023-12-20T04:57:18;6.20;99.90
14555;DHT22;7364;50.870;4.722;2023-12-20T04:59:45;6.20;99.90
14555;DHT22;7364;50.870;4.722;2023-12-20T05:02:12;6.10;99.90
14555;DHT22;7364;50.870;4.722;2023-12-20T05:04:41;6.10;99.90
14555;DHT22;7364;50.870;4.722;2023-12-20T05:07:08;6.00;99.90
14555;DHT22;7364;50.870;4.722;2023-12-20T05:09:35;6.00;99.90
14555;DHT22;7364;50.870;4.722;2023-12-20T05:12:03;6.00;99.90
14555;DHT22;7364;50.870;4.722;2023-12-20T05:14:31;6.00;99.90
14555;DHT22;7364;50.870;4.722;2023-12-20T05:16:59;5.90;99.90
14555;DHT22;7364;50.870;4.722;2023-12-20T05:19:26;6.00;99.90
14555;DHT22;7364;50.870;4.722;2023-12-20T05:21:53;6.00;99.90
14555;DHT22;7364;50.870;4.722;2023-12-20T05:24:21;6.00;99.90
14555;DHT22;7364;50.870;4.722;2023-12-20T05:26:48;6.00;99.90
14555;DHT22;7364;50.870;4.722;2023-12-20T05:29:15;5.90;99.90
14555;DHT22;7364;50.870;4.722;2023-12-20T05:31:44;5.90;99.90
14555;DHT22;7364;50.870;4.722;2023-12-20T05:34:12;5.90;99.90
14555;DHT22;7364;50.870;4.722;2023-12-20T05:36:39;5.90;99.90
14555;DHT22;7364;50.870;4.722;2023-12-20T05:39:06;5.80;99.90
14555;DHT22;7364;50.870;4.722;2023-12-20T05:41:34;5.90;99.90
14555;DHT22;7364;50.870;4.722;2023-12-20T05:44:01;5.90;99.90
14555;DHT22;7364;50.870;4.722;2023-12-20T05:46:30;5.90;99.90
14555;DHT22;7364;50.870;4.722;2023-12-20T05:48:58;5.90;99.90
14555;DHT22;7364;50.870;4.722;2023-12-20T05:51:26;5.90;99.90
14555;DHT22;7364;50.870;4.722;2023-12-20T05:53:53;5.90;99.90
14555;DHT22;7364;50.870;4.722;2023-12-20T05:56:20;5.90;99.90
14555;DHT22;7364;50.870;4.722;2023-12-20T05:58:47;5.90;99.90
14555;DHT22;7364;50.870;4.722;2023-12-20T06:01:15;5.80;99.90
14555;DHT22;7364;50.870;4.722;2023-12-20T06:03:43;5.90;99.90
14555;DHT22;7364;50.870;4.722;2023-12-20T06:06:13;5.90;99.90
14555;DHT22;7364;50.870;4.722;2023-12-20T06:08:41;5.90;99.90
14555;DHT22;7364;50.870;4.722;2023-12-20T06:11:11;5.80;99.90
14555;DHT22;7364;50.870;4.722;2023-12-20T06:13:39;5.90;99.90
14555;DHT22;7364;50.870;4.722;2023-12-20T06:16:06;5.90;99.90
14555;DHT22;7364;50.870;4.722;2023-12-20T06:18:34;5.90;99.90
14555;DHT22;7364;50.870;4.722;2023-12-20T06:21:03;5.90;99.90
14555;DHT22;7364;50.870;4.722;2023-12-20T06:23:31;5.90;99.90
14555;DHT22;7364;50.870;4.722;2023-12-20T06:25:58;6.00;99.90
14555;DHT22;7364;50.870;4.722;2023-12-20T06:28:26;6.00;99.90
14555;DHT22;7364;50.870;4.722;2023-12-20T06:30:53;6.00;99.90
14555;DHT22;7364;50.870;4.722;2023-12-20T06:33:20;6.00;99.90
14555;DHT22;7364;50.870;4.722;2023-12-20T06:35:48;5.90;99.90
14555;DHT22;7364;50.870;4.722;2023-12-20T06:38:16;6.00;99.90
14555;DHT22;7364;50.870;4.722;2023-12-20T06:40:45;6.00;99.90
14555;DHT22;7364;50.870;4.722;2023-12-20T06:43:12;6.00;99.90
14555;DHT22;7364;50.870;4.722;2023-12-20T06:45:40;6.00;99.90
14555;DHT22;7364;50.870;4.722;2023-12-20T06:48:07;6.00;99.90
14555;DHT22;7364;50.870;4.722;2023-12-20T06:50:37;6.00;99.90
14555;DHT22;7364;50.870;4.722;2023-12-20T06:53:05;6.10;99.90
14555;DHT22;7364;50.870;4.722;2023-12-20T06:55:34;6.20;99.90
14555;DHT22;7364;50.870;4.722;2023-12-20T06:58:05;6.20;99.90
14555;DHT22;7364;50.870;4.722;2023-12-20T07:00:32;6.10;99.90
14555;DHT22;7364;50.870;4.722;2023-12-20T07:02:59;6.10;99.90
14555;DHT22;7364;50.870;4.722;2023-12-20T07:05:26;6.10;99.90
14555;DHT22;7364;50.870;4.722;2023-12-20T07:07:53;6.00;99.90
14555;DHT22;7364;50.870;4.722;2023-12-20T07:10:21;5.90;99.90
14555;DHT22;7364;50.870;4.722;2023-12-20T07:12:48;5.80;99.90
14555;DHT22;7364;50.870;4.722;2023-12-20T07:15:18;5.80;99.90
14555;DHT22;7364;50.870;4.722;2023-12-20T07:17:45;5.80;99.90
14555;DHT22;7364;50.870;4.722;2023-12-20T07:20:12;5.80;99.90
14555;DHT22;7364;50.870;4.722;2023-12-20T07:22:39;5.80;99.90
14555;DHT22;7364;50.870;4.722;2023-12-20T07:25:07;5.70;99.90
14555;DHT22;7364;50.870;4.722;2023-12-20T07:27:34;5.80;99.90
14555;DHT22;7364;50.870;4.722;2023-12-20T07:30:03;5.80;99.90
14555;DHT22;7364;50.870;4.722;2023-12-20T07:32:32;6.00;99.90
14555;DHT22;7364;50.870;4.722;2023-12-20T07:34:59;5.90;99.90
14555;DHT22;7364;50.870;4.722;2023-12-20T07:37:26;5.90;99.90
14555;DHT22;7364;50.870;4.722;2023-12-20T07:39:53;6.00;99.90
14555;DHT22;7364;50.870;4.722;2023-12-20T07:42:21;5.80;99.90
14555;DHT22;7364;50.870;4.722;2023-12-20T07:44:49;5.90;99.90
14555;DHT22;7364;50.870;4.722;2023-12-20T07:47:16;5.90;99.90
14555;DHT22;7364;50.870;4.722;2023-12-20T07:49:48;5.80;99.90
14555;DHT22;7364;50.870;4.722;2023-12-20T07:52:17;5.70;99.90
14555;DHT22;7364;50.870;4.722;2023-12-20T07:54:45;5.80;99.90
14555;DHT22;7364;50.870;4.722;2023-12-20T07:57:12;5.90;99.90
14555;DHT22;7364;50.870;4.722;2023-12-20T07:59:39;5.90;99.90
14555;DHT22;7364;50.870;4.722;2023-12-20T08:02:06;6.00;99.90
14555;DHT22;7364;50.870;4.722;2023-12-20T08:04:33;6.00;99.90
14555;DHT22;7364;50.870;4.722;2023-12-20T08:07:02;5.90;99.90
14555;DHT22;7364;50.870;4.722;2023-12-20T08:09:30;5.80;99.90
14555;DHT22;7364;50.870;4.722;2023-12-20T08:11:58;5.80;99.90
14555;DHT22;7364;50.870;4.722;2023-12-20T08:14:26;5.80;99.90
14555;DHT22;7364;50.870;4.722;2023-12-20T08:16:53;5.90;99.90
14555;DHT22;7364;50.870;4.722;2023-12-20T08:19:23;5.90;99.90
14555;DHT22;7364;50.870;4.722;2023-12-20T08:21:50;5.80;99.90
14555;DHT22;7364;50.870;4.722;2023-12-20T08:24:19;5.80;99.90
14555;DHT22;7364;50.870;4.722;2023-12-20T08:26:46;5.80;99.90
14555;DHT22;7364;50.870;4.722;2023-12-20T08:29:13;5.90;99.90
14555;DHT22;7364;50.870;4.722;2023-12-20T08:31:41;5.90;99.90
14555;DHT22;7364;50.870;4.722;2023-12-20T08:34:08;5.90;99.90
14555;DHT22;7364;50.870;4.722;2023-12-20T08:36:37;5.90;99.90
14555;DHT22;7364;50.870;4.722;2023-12-20T08:39:04;5.90;99.90
14555;DHT22;7364;50.870;4.722;2023-12-20T08:41:35;6.10;99.90
14555;DHT22;7364;50.870;4.722;2023-12-20T08:44:02;6.20;99.90
14555;DHT22;7364;50.870;4.722;2023-12-20T08:46:29;6.40;99.90
14555;DHT22;7364;50.870;4.722;2023-12-20T08:49:00;6.60;99.90
14555;DHT22;7364;50.870;4.722;2023-12-20T08:51:27;6.70;99.90
14555;DHT22;7364;50.870;4.722;2023-12-20T08:53:55;6.60;99.90
14555;DHT22;7364;50.870;4.722;2023-12-20T08:56:22;6.60;99.90
14555;DHT22;7364;50.870;4.722;2023-12-20T08:58:50;6.60;99.90
14555;DHT22;7364;50.870;4.722;2023-12-20T09:01:18;6.50;99.90
14555;DHT22;7364;50.870;4.722;2023-12-20T09:03:45;6.50;99.90
14555;DHT22;7364;50.870;4.722;2023-12-20T09:06:12;6.50;99.90
14555;DHT22;7364;50.870;4.722;2023-12-20T09:08:39;6.50;99.90
14555;DHT22;7364;50.870;4.722;2023-12-20T09:11:06;6.40;99.90
14555;DHT22;7364;50.870;4.722;2023-12-20T09:13:34;6.40;99.90
14555;DHT22;7364;50.870;4.722;2023-12-20T09:16:03;6.40;99.90
14555;DHT22;7364;50.870;4.722;2023-12-20T09:18:30;6.40;99.90
14555;DHT22;7364;50.870;4.722;2023-12-20T09:20:57;6.70;99.90
14555;DHT22;7364;50.870;4.722;2023-12-20T09:23:24;6.80;99.90
14555;DHT22;7364;50.870;4.722;2023-12-20T09:25:52;6.90;99.90
14555;DHT22;7364;50.870;4.722;2023-12-20T09:28:19;7.00;99.90
14555;DHT22;7364;50.870;4.722;2023-12-20T09:30:46;7.00;99.90
14555;DHT22;7364;50.870;4.722;2023-12-20T09:33:15;7.20;99.90
14555;DHT22;7364;50.870;4.722;2023-12-20T09:35:43;7.30;99.90
14555;DHT22;7364;50.870;4.722;2023-12-20T09:38:10;7.50;99.90
14555;DHT22;7364;50.870;4.722;2023-12-20T09:40:41;7.60;99.90
14555;DHT22;7364;50.870;4.722;2023-12-20T09:43:11;7.50;99.90
14555;DHT22;7364;50.870;4.722;2023-12-20T09:45:39;7.60;99.90
14555;DHT22;7364;50.870;4.722;2023-12-20T09:48:07;7.60;99.90
14555;DHT22;7364;50.870;4.722;2023-12-20T09:50:37;7.30;99.90
14555;DHT22;7364;50.870;4.722;2023-12-20T09:53:05;7.50;99.90
14555;DHT22;7364;50.870;4.722;2023-12-20T09:55:36;7.40;99.90
14555;DHT22;7364;50.870;4.722;2023-12-20T09:58:03;7.50;99.90
14555;DHT22;7364;50.870;4.722;2023-12-20T10:00:32;7.50;99.90
14555;DHT22;7364;50.870;4.722;2023-12-20T10:03:00;7.50;99.90
14555;DHT22;7364;50.870;4.722;2023-12-20T10:05:28;7.60;99.90
14555;DHT22;7364;50.870;4.722;2023-12-20T10:07:57;7.70;99.90
14555;DHT22;7364;50.870;4.722;2023-12-20T10:10:25;7.80;99.90
14555;DHT22;7364;50.870;4.722;2023-12-20T10:13:03;7.60;99.90
14555;DHT22;7364;50.870;4.722;2023-12-20T10:15:32;7.60;99.90
14555;DHT22;7364;50.870;4.722;2023-12-20T10:18:00;7.60;99.90
14555;DHT22;7364;50.870;4.722;2023-12-20T10:20:27;7.60;99.90
14555;DHT22;7364;50.870;4.722;2023-12-20T10:22:58;7.50;99.90
14555;DHT22;7364;50.870;4.722;2023-12-20T10:25:26;7.50;99.90
14555;DHT22;7364;50.870;4.722;2023-12-20T10:28:08;7.50;99.90
14555;DHT22;7364;50.870;4.722;2023-12-20T10:30:39;7.60;99.90
14555;DHT22;7364;50.870;4.722;2023-12-20T10:33:07;7.60;99.90
14555;DHT22;7364;50.870;4.722;2023-12-20T10:35:34;7.60;99.90
14555;DHT22;7364;50.870;4.722;2023-12-20T10:38:05;7.50;99.90
14555;DHT22;7364;50.870;4.722;2023-12-20T10:40:35;7.60;99.90
14555;DHT22;7364;50.870;4.722;2023-12-20T10:43:04;7.50;99.90
14555;DHT22;7364;50.870;4.722;2023-12-20T10:45:31;7.50;99.90
14555;DHT22;7364;50.870;4.722;2023-12-20T10:48:00;7.50;99.90
14555;DHT22;7364;50.870;4.722;2023-12-20T10:50:29;7.60;99.90
14555;DHT22;7364;50.870;4.722;2023-12-20T10:52:57;7.50;99.90
14555;DHT22;7364;50.870;4.722;2023-12-20T10:55:26;7.60;99.90
14555;DHT22;7364;50.870;4.722;2023-12-20T10:58:01;7.60;99.90
14555;DHT22;7364;50.870;4.722;2023-12-20T11:00:29;7.60;99.90
14555;DHT22;7364;50.870;4.722;2023-12-20T11:03:00;7.60;99.90
14555;DHT22;7364;50.870;4.722;2023-12-20T11:05:33;7.60;99.90
14555;DHT22;7364;50.870;4.722;2023-12-20T11:08:08;7.70;99.90
14555;DHT22;7364;50.870;4.722;2023-12-20T11:10:43;7.70;99.90
14555;DHT22;7364;50.870;4.722;2023-12-20T11:13:20;7.70;99.90
14555;DHT22;7364;50.870;4.722;2023-12-20T11:15:49;7.70;99.90
14555;DHT22;7364;50.870;4.722;2023-12-20T11:18:16;7.80;99.90
14555;DHT22;7364;50.870;4.722;2023-12-20T11:20:43;7.90;99.90
14555;DHT22;7364;50.870;4.722;2023-12-20T11:23:11;8.00;99.90
14555;DHT22;7364;50.870;4.722;2023-12-20T11:25:48;8.00;99.90
14555;DHT22;7364;50.870;4.722;2023-12-20T11:28:15;8.00;99.90
14555;DHT22;7364;50.870;4.722;2023-12-20T11:30:50;7.90;99.90
14555;DHT22;7364;50.870;4.722;2023-12-20T11:33:21;7.90;99.90
14555;DHT22;7364;50.870;4.722;2023-12-20T11:35:49;7.90;99.90
14555;DHT22;7364;50.870;4.722;2023-12-20T11:38:16;7.80;99.90
14555;DHT22;7364;50.870;4.722;2023-12-20T11:40:44;7.80;99.90
14555;DHT22;7364;50.870;4.722;2023-12-20T11:43:29;7.80;99.90
14555;DHT22;7364;50.870;4.722;2023-12-20T11:46:03;7.80;99.90
14555;DHT22;7364;50.870;4.722;2023-12-20T11:48:30;7.80;99.90
14555;DHT22;7364;50.870;4.722;2023-12-20T11:50:58;7.80;99.90
14555;DHT22;7364;50.870;4.722;2023-12-20T11:53:25;7.80;99.90
14555;DHT22;7364;50.870;4.722;2023-12-20T11:55:54;7.70;99.90
14555;DHT22;7364;50.870;4.722;2023-12-20T11:58:22;7.70;99.90
14555;DHT22;7364;50.870;4.722;2023-12-20T12:00:50;7.80;99.90
14555;DHT22;7364;50.870;4.722;2023-12-20T12:03:17;7.80;99.90
14555;DHT22;7364;50.870;4.722;2023-12-20T12:05:47;7.80;99.90
14555;DHT22;7364;50.870;4.722;2023-12-20T12:08:15;7.80;99.90
14555;DHT22;7364;50.870;4.722;2023-12-20T12:13:10;7.80;99.90
14555;DHT22;7364;50.870;4.722;2023-12-20T12:15:39;7.80;99.90
14555;DHT22;7364;50.870;4.722;2023-12-20T12:18:08;7.80;99.90
14555;DHT22;7364;50.870;4.722;2023-12-20T12:20:36;7.70;99.90
14555;DHT22;7364;50.870;4.722;2023-12-20T12:23:04;7.70;99.90
14555;DHT22;7364;50.870;4.722;2023-12-20T12:25:34;7.70;99.90
14555;DHT22;7364;50.870;4.722;2023-12-20T12:28:02;7.70;99.90
14555;DHT22;7364;50.870;4.722;2023-12-20T12:30:29;7.70;99.90
14555;DHT22;7364;50.870;4.722;2023-12-20T12:32:58;7.80;99.90
14555;DHT22;7364;50.870;4.722;2023-12-20T12:35:25;7.80;99.90
14555;DHT22;7364;50.870;4.722;2023-12-20T12:37:52;7.90;99.90
14555;DHT22;7364;50.870;4.722;2023-12-20T12:40:19;7.90;99.90
14555;DHT22;7364;50.870;4.722;2023-12-20T12:42:47;7.90;99.90
14555;DHT22;7364;50.870;4.722;2023-12-20T12:45:14;7.80;99.90
14555;DHT22;7364;50.870;4.722;2023-12-20T12:47:42;7.90;99.90
14555;DHT22;7364;50.870;4.722;2023-12-20T12:50:11;7.90;99.90
14555;DHT22;7364;50.870;4.722;2023-12-20T12:52:38;7.90;99.90
14555;DHT22;7364;50.870;4.722;2023-12-20T12:55:07;8.00;99.90
14555;DHT22;7364;50.870;4.722;2023-12-20T12:57:34;8.00;99.90
14555;DHT22;7364;50.870;4.722;2023-12-20T13:00:01;7.90;99.90
14555;DHT22;7364;50.870;4.722;2023-12-20T13:02:30;8.00;99.90
14555;DHT22;7364;50.870;4.722;2023-12-20T13:04:57;7.90;99.90
14555;DHT22;7364;50.870;4.722;2023-12-20T13:07:26;8.00;99.90
14555;DHT22;7364;50.870;4.722;2023-12-20T13:09:53;8.00;99.90
14555;DHT22;7364;50.870;4.722;2023-12-20T13:12:20;8.10;99.90
14555;DHT22;7364;50.870;4.722;2023-12-20T13:14:48;8.00;99.90
14555;DHT22;7364;50.870;4.722;2023-12-20T13:17:15;8.10;99.90
14555;DHT22;7364;50.870;4.722;2023-12-20T13:19:42;8.10;99.90
14555;DHT22;7364;50.870;4.722;2023-12-20T13:22:09;8.20;99.90
14555;DHT22;7364;50.870;4.722;2023-12-20T13:24:38;8.20;99.90
14555;DHT22;7364;50.870;4.722;2023-12-20T13:27:05;8.20;99.90
14555;DHT22;7364;50.870;4.722;2023-12-20T13:29:32;8.30;99.90
14555;DHT22;7364;50.870;4.722;2023-12-20T13:31:59;8.30;99.90
14555;DHT22;7364;50.870;4.722;2023-12-20T13:34:27;8.20;99.90
14555;DHT22;7364;50.870;4.722;2023-12-20T13:36:54;8.30;99.90
14555;DHT22;7364;50.870;4.722;2023-12-20T13:39:22;8.30;99.90
14555;DHT22;7364;50.870;4.722;2023-12-20T13:41:50;8.50;99.90
14555;DHT22;7364;50.870;4.722;2023-12-20T13:44:18;8.60;99.90
14555;DHT22;7364;50.870;4.722;2023-12-20T13:46:45;8.60;99.90
14555;DHT22;7364;50.870;4.722;2023-12-20T13:49:12;8.60;99.90
14555;DHT22;7364;50.870;4.722;2023-12-20T13:51:40;8.70;99.90
14555;DHT22;7364;50.870;4.722;2023-12-20T13:54:09;8.90;99.90
14555;DHT22;7364;50.870;4.722;2023-12-20T13:56:38;9.00;99.90
14555;DHT22;7364;50.870;4.722;2023-12-20T13:59:07;9.00;99.90
14555;DHT22;7364;50.870;4.722;2023-12-20T14:01:34;8.90;99.90
14555;DHT22;7364;50.870;4.722;2023-12-20T14:04:02;9.00;99.90
14555;DHT22;7364;50.870;4.722;2023-12-20T14:06:29;8.80;99.90
14555;DHT22;7364;50.870;4.722;2023-12-20T14:08:56;8.90;99.90
14555;DHT22;7364;50.870;4.722;2023-12-20T14:11:26;8.70;99.90
14555;DHT22;7364;50.870;4.722;2023-12-20T14:13:53;8.60;99.90
14555;DHT22;7364;50.870;4.722;2023-12-20T14:16:24;8.60;99.90
14555;DHT22;7364;50.870;4.722;2023-12-20T14:18:52;8.70;99.90
14555;DHT22;7364;50.870;4.722;2023-12-20T14:21:23;8.80;99.90
14555;DHT22;7364;50.870;4.722;2023-12-20T14:23:50;8.70;99.90
14555;DHT22;7364;50.870;4.722;2023-12-20T14:26:18;8.60;99.90
14555;DHT22;7364;50.870;4.722;2023-12-20T14:28:45;8.50;99.90
14555;DHT22;7364;50.870;4.722;2023-12-20T14:31:12;8.50;99.90
14555;DHT22;7364;50.870;4.722;2023-12-20T14:33:41;8.50;99.90
14555;DHT22;7364;50.870;4.722;2023-12-20T14:36:09;8.60;99.90
14555;DHT22;7364;50.870;4.722;2023-12-20T14:38:36;8.60;99.90
14555;DHT22;7364;50.870;4.722;2023-12-20T14:41:03;8.50;99.90
14555;DHT22;7364;50.870;4.722;2023-12-20T14:43:34;8.50;99.90
14555;DHT22;7364;50.870;4.722;2023-12-20T14:46:01;8.60;99.90
14555;DHT22;7364;50.870;4.722;2023-12-20T14:48:28;8.60;99.90
14555;DHT22;7364;50.870;4.722;2023-12-20T14:50:57;8.70;99.90
14555;DHT22;7364;50.870;4.722;2023-12-20T14:53:25;8.70;99.90
14555;DHT22;7364;50.870;4.722;2023-12-20T14:55:53;8.80;99.90
14555;DHT22;7364;50.870;4.722;2023-12-20T14:58:20;8.80;99.90
14555;DHT22;7364;50.870;4.722;2023-12-20T15:00:47;8.70;99.90
14555;DHT22;7364;50.870;4.722;2023-12-20T15:03:15;8.70;99.90
14555;DHT22;7364;50.870;4.722;2023-12-20T15:05:45;8.70;99.90
14555;DHT22;7364;50.870;4.722;2023-12-20T15:08:14;8.70;99.90
14555;DHT22;7364;50.870;4.722;2023-12-20T15:10:42;8.60;99.90
14555;DHT22;7364;50.870;4.722;2023-12-20T15:13:09;8.70;99.90
14555;DHT22;7364;50.870;4.722;2023-12-20T15:15:37;8.60;99.90
14555;DHT22;7364;50.870;4.722;2023-12-20T15:18:05;8.70;99.90
14555;DHT22;7364;50.870;4.722;2023-12-20T15:20:32;8.70;99.90
14555;DHT22;7364;50.870;4.722;2023-12-20T15:23:02;8.80;99.90
14555;DHT22;7364;50.870;4.722;2023-12-20T15:25:33;8.80;99.90
14555;DHT22;7364;50.870;4.722;2023-12-20T15:28:02;8.80;99.90
14555;DHT22;7364;50.870;4.722;2023-12-20T15:30:29;8.70;99.90
14555;DHT22;7364;50.870;4.722;2023-12-20T15:32:56;8.80;99.90
14555;DHT22;7364;50.870;4.722;2023-12-20T15:35:23;8.80;99.90
14555;DHT22;7364;50.870;4.722;2023-12-20T15:37:50;8.80;99.90
14555;DHT22;7364;50.870;4.722;2023-12-20T15:40:18;8.80;99.90
14555;DHT22;7364;50.870;4.722;2023-12-20T15:42:46;8.70;99.90
14555;DHT22;7364;50.870;4.722;2023-12-20T15:45:14;8.80;99.90
14555;DHT22;7364;50.870;4.722;2023-12-20T15:47:41;9.00;99.90
14555;DHT22;7364;50.870;4.722;2023-12-20T15:50:11;9.00;99.90
14555;DHT22;7364;50.870;4.722;2023-12-20T15:52:39;9.10;99.90
14555;DHT22;7364;50.870;4.722;2023-12-20T15:55:08;9.00;99.90
14555;DHT22;7364;50.870;4.722;2023-12-20T15:57:35;8.90;99.90
14555;DHT22;7364;50.870;4.722;2023-12-20T16:00:05;8.90;99.90
14555;DHT22;7364;50.870;4.722;2023-12-20T16:02:34;8.90;99.90
14555;DHT22;7364;50.870;4.722;2023-12-20T16:05:01;8.90;99.90
14555;DHT22;7364;50.870;4.722;2023-12-20T16:07:28;8.90;99.90
14555;DHT22;7364;50.870;4.722;2023-12-20T16:09:55;8.90;99.90